x

South Hecate Strait (46185) Wave Buoy

12:00pm - Fri 6th Mar 2015 All times are PST. -8 hours from GMT.

  • Sig Wave height 3.3ft
  • Peak Period 17s
  • Wind
    9mph, 11mph gusts
  • Sea Temp 48°f
  • Air Temp 47°f
  • Sea Pressure 1030mb
  • South Hecate Strait
  • South Hecate Strait

More Historic Weather Station data

Upgrade to MSW Pro to gain access to the past 30 days of data for over 8000 Wavebouys and Weather Stations around the globe.

Join Pro

Comparision Forecast

View Surf forecast
   
Fri 03/06 12:00pm 3.5ft 17s 9 11 mph 1030mb 48f 47f
11:00am 3.5ft 16s 7 9 mph 1029.8mb 48f 47f
10:00am 3.5ft 16s 2 4 mph 1029.8mb 48f 47f
9:00am 4ft 16s 9 11 mph 1029.2mb 48f 46f
8:00am 4.5ft 16s 9
mph
1028.5mb 48f 46f
7:00am 4.5ft 17s 7
mph
1028.3mb 48f 47f
6:00am 4.5ft 17s 4 7 mph 1028mb 48f 47f
5:00am 4.5ft 17s 2
mph
1027.6mb 48f 48f
4:00am 4.5ft 17s 2 4 mph 1027.6mb 48f 48f
3:00am 5ft 8s 2 4 mph 1027.5mb 48f 48f
2:00am 5ft 8s 2 4 mph 1027.3mb 48f 48f
1:00am 5ft 8s 4 7 mph 1026.8mb 48f 48f
12:00am 5.5ft 8s 7
mph
1026.5mb 48f 48f
Thu 03/05 11:00pm 6ft 8s 9 13 mph 1026mb 48f 48f
10:00pm 7ft 7s 11 13 mph 1025.3mb 48f 48f
9:00pm 7ft 7s 13 16 mph 1024.7mb 48f 48f
8:00pm 8ft 8s 11 16 mph 1024mb 48f 49f
7:00pm 8ft 8s 13 20 mph 1023mb 48f 49f
6:00pm 8.5ft 8s 16 18 mph 1021.8mb 48f 49f
5:00pm 10ft 8s 20 25 mph 1020.8mb 48f 50f
4:00pm 10ft 7s 25 31 mph 1019.6mb 48f 49f
3:00pm  -   -  29
mph
- - 49f
2:00pm 8.5ft 7s 29 36 mph 1017.9mb 48f 49f
1:00pm 7.5ft 6s 27 34 mph 1018.1mb 48f 49f
12:00pm 7.5ft 6s 27 34 mph 1017.9mb 48f 50f
11:00am 7ft 7s 27 31 mph 1018mb 48f 50f
10:00am 6.5ft 7s 22 27 mph 1017.9mb 48f 49f
9:00am 7ft 7s 18 22 mph 1018.1mb 48f 49f
8:00am 6ft 6s 16 18 mph 1018.3mb 48f 49f
7:00am 5.5ft 6s 13 18 mph 1018.6mb 48f 49f
6:00am 5ft 6s 11 13 mph 1018.6mb 48f 49f
5:00am 5ft 6s 11 13 mph 1018.7mb 48f 49f
4:00am 5ft 6s 13 16 mph 1018.7mb 48f 49f
3:00am 6ft 6s 11 16 mph 1018.7mb 48f 49f
2:00am 6ft 5s 18 25 mph 1018.7mb 48f 48f
1:00am 5.5ft 6s 22 27 mph 1019mb 48f 48f
12:00am 5.5ft 5s 25 29 mph 1019.6mb 48f 47f
Wed 03/04 11:00pm 5ft 5s 25 29 mph 1020.1mb 48f 47f
10:00pm 4.5ft 4s 25 29 mph 1020.3mb 48f 47f
9:00pm 4ft 4s 22 27 mph 1020.6mb 48f 47f
8:00pm 3.5ft 4s 18 22 mph 1021mb 48f 47f
7:00pm 3.5ft 4s 20 22 mph 1021.5mb 48f 47f
5:00pm 2.5ft 20s 13 18 mph 1022.1mb 48f 47f
4:00pm 2.5ft 4s 13
mph
1022.8mb 48f 47f
3:00pm 2.5ft 20s 9 11 mph 1023mb 48f 47f
2:00pm 2.5ft 20s 11 13 mph 1023.2mb 48f 46f
1:00pm 2.5ft 20s 9 13 mph 1023.5mb 48f 47f
12:00pm 2.5ft 20s 9 11 mph 1023.6mb 48f 47f
11:00am 2.5ft 20s 9 11 mph 1023.7mb 48f 47f
10:00am 2.5ft 3s 9 11 mph 1023.8mb 48f 47f
9:00am 2.5ft 3s 16 18 mph 1023.6mb 48f 47f
8:00am 2.5ft 3s 18 20 mph 1023.6mb 48f 46f
7:00am 2ft 3s 16 18 mph 1023.8mb 48f 47f
6:00am 1.6ft 21s 16 18 mph 1023.7mb 48f 47f
5:00am 1.3ft 21s 16 18 mph 1023.7mb 48f 47f
4:00am 1.3ft 21s 13 16 mph 1023.9mb 48f 47f
3:00am 1ft 12s 9 11 mph 1024.4mb 48f 47f
2:00am 1.3ft 15s 7 9 mph 1024.6mb 48f 47f
1:00am 1ft 12s 7
mph
1024.5mb 48f 47f
12:00am 1.3ft 15s 4 7 mph 1024.2mb 48f 47f
Tue 03/03 11:00pm 1.3ft 9s 4 7 mph 1024.3mb 48f 47f
10:00pm 1.3ft 12s 4
mph
1024.3mb 48f 46f
9:00pm 1.3ft 12s 2 4 mph 1024.4mb 48f 46f
8:00pm 1.3ft 15s 4
mph
1024.6mb 48f 46f
7:00pm 1ft 12s 4
mph
1025mb 48f 46f
6:00pm 1ft 13s 2 4 mph 1025mb 48f 46f
5:00pm 1ft 12s  -  2 mph 1025.2mb 49f 47f
4:00pm 1.3ft 13s  -  2 mph 1025.5mb 49f 48f
3:00pm 1ft 15s 2
mph
1025.6mb 49f 47f
2:00pm 1.3ft 13s 2 4 mph 1025.7mb 49f 47f
1:00pm 1.3ft 14s 2
mph
1025.9mb 48f 47f
12:00pm 1.3ft 12s 2 4 mph 1025.9mb 48f 46f
11:00am 1.3ft 13s 7
mph
1025.5mb 48f 45f
10:00am 1.3ft 13s 7 9 mph 1025.5mb 47f 46f
9:00am 1.3ft 13s 7
mph
1025.5mb 47f 46f
8:00am 1.3ft 13s 7 9 mph 1025.3mb 47f 46f
7:00am 1.3ft 12s 7 9 mph 1025mb 47f 46f
6:00am 1.6ft 14s 7
mph
1025.3mb 47f 46f
5:00am 1.3ft 12s 7 9 mph 1025.3mb 47f 46f
4:00am 1.6ft 14s 9
mph
1025.4mb 47f 46f
3:00am 1.6ft 13s 9 11 mph 1024.8mb 47f 47f
2:00am 1.6ft 12s 9
mph
1024.8mb 47f 47f
1:00am 2ft 5s 4 7 mph 1024.6mb 47f 47f
12:00am 2ft 5s 7
mph
1024.4mb 47f 47f
Mon 03/02 11:00pm 2.5ft 5s 9 11 mph 1024.3mb 47f 47f
10:00pm 2.5ft 6s 13 16 mph 1023.9mb 48f 48f